createdAt,value
2023-04-06T00:00:22.400Z,75.36
2023-04-06T00:02:50.502Z,75.44
2023-04-06T00:05:18.940Z,75.53
2023-04-06T00:07:46.949Z,75.51
2023-04-06T00:10:19.404Z,75.56
2023-04-06T00:12:49.300Z,75.36
2023-04-06T00:15:17.642Z,75.22
2023-04-06T00:17:48.206Z,75.11
2023-04-06T00:20:16.841Z,75.10
2023-04-06T00:22:45.661Z,74.92
2023-04-06T00:25:14.810Z,74.92
2023-04-06T00:27:43.485Z,75.01
2023-04-06T00:30:12.293Z,74.89
2023-04-06T00:32:41.868Z,75.12
2023-04-06T00:35:11.887Z,75.31
2023-04-06T00:37:44.113Z,75.49
2023-04-06T00:40:14.759Z,75.62
2023-04-06T00:42:43.660Z,75.69
2023-04-06T00:45:13.881Z,75.63
2023-04-06T00:47:45.163Z,75.73
2023-04-06T00:50:14.551Z,75.82
2023-04-06T00:52:42.565Z,75.92
2023-04-06T00:55:11.167Z,76.10
2023-04-06T00:57:40.365Z,76.05
2023-04-06T01:00:10.334Z,76.17
2023-04-06T01:02:44.019Z,76.19
2023-04-06T01:05:12.006Z,76.20
2023-04-06T01:07:41.448Z,76.30
2023-04-06T01:10:11.747Z,76.49
2023-04-06T01:12:40.926Z,76.50
2023-04-06T01:15:11.407Z,76.55
2023-04-06T01:17:39.876Z,76.74
2023-04-06T01:20:09.460Z,76.76
2023-04-06T01:22:38.767Z,77.00
2023-04-06T01:25:09.041Z,76.96
2023-04-06T01:27:38.024Z,77.07
2023-04-06T01:30:07.494Z,77.20
2023-04-06T01:32:35.682Z,77.34
2023-04-06T01:35:05.917Z,77.23
2023-04-06T01:37:35.887Z,77.27
2023-04-06T01:40:08.651Z,77.17
2023-04-06T01:42:38.058Z,77.26
2023-04-06T01:45:08.496Z,77.29
2023-04-06T01:47:38.979Z,77.34
2023-04-06T01:50:08.382Z,77.44
2023-04-06T01:52:37.041Z,77.39
2023-04-06T01:55:07.729Z,77.42
2023-04-06T01:57:38.872Z,77.47
2023-04-06T02:00:08.490Z,77.59
2023-04-06T02:02:39.128Z,77.76
2023-04-06T02:05:08.944Z,77.80
2023-04-06T02:07:36.924Z,77.94
2023-04-06T02:10:13.543Z,78.13
2023-04-06T02:12:42.519Z,78.28
2023-04-06T02:15:12.785Z,78.46
2023-04-06T02:17:43.072Z,78.67
2023-04-06T02:20:14.372Z,78.90
2023-04-06T02:22:42.388Z,79.01
2023-04-06T02:25:11.978Z,79.00
2023-04-06T02:27:42.587Z,79.15
2023-04-06T02:30:12.945Z,79.13
2023-04-06T02:32:41.255Z,79.19
2023-04-06T02:35:17.432Z,79.45
2023-04-06T02:37:46.036Z,79.48
2023-04-06T02:40:17.306Z,79.78
2023-04-06T02:42:45.546Z,79.97
2023-04-06T02:45:15.543Z,80.10
2023-04-06T02:47:43.889Z,80.39
2023-04-06T02:50:13.392Z,80.48
2023-04-06T02:52:41.719Z,80.70
2023-04-06T02:55:10.429Z,80.86
2023-04-06T02:57:40.093Z,81.09
2023-04-06T03:00:10.885Z,81.43
2023-04-06T03:02:39.238Z,81.81
2023-04-06T03:05:07.859Z,82.07
2023-04-06T03:07:36.189Z,82.27
2023-04-06T03:10:05.222Z,82.54
2023-04-06T03:12:33.258Z,82.80
2023-04-06T03:15:03.214Z,82.85
2023-04-06T03:17:31.437Z,83.14
2023-04-06T03:20:05.005Z,83.29
2023-04-06T03:22:37.880Z,83.46
2023-04-06T03:25:07.349Z,83.50
2023-04-06T03:27:35.831Z,83.64
2023-04-06T03:30:08.687Z,84.10
2023-04-06T03:32:37.351Z,84.41
2023-04-06T03:35:07.040Z,84.50
2023-04-06T03:37:35.277Z,84.78
2023-04-06T03:40:03.916Z,85.05
2023-04-06T03:42:33.648Z,85.26
2023-04-06T03:45:01.931Z,85.64
2023-04-06T03:47:31.546Z,86.01
2023-04-06T03:49:59.798Z,86.29
2023-04-06T03:52:28.273Z,86.55
2023-04-06T03:54:58.818Z,86.80
2023-04-06T03:57:26.848Z,86.92
2023-04-06T03:59:55.117Z,87.07
2023-04-06T04:02:26.129Z,87.10
2023-04-06T04:04:55.615Z,87.29
2023-04-06T04:07:26.656Z,87.35
2023-04-06T04:09:54.991Z,87.45
2023-04-06T04:12:23.283Z,87.57
2023-04-06T04:14:51.779Z,87.57
2023-04-06T04:17:19.863Z,87.66
2023-04-06T04:19:48.329Z,87.72
2023-04-06T04:22:17.841Z,87.79
2023-04-06T04:24:45.883Z,87.74
2023-04-06T04:27:15.467Z,87.93
2023-04-06T04:29:53.135Z,87.91
2023-04-06T04:32:22.840Z,87.82
2023-04-06T04:34:51.180Z,87.78
2023-04-06T04:37:21.774Z,87.89
2023-04-06T04:39:50.002Z,87.98
2023-04-06T04:42:18.700Z,88.03
2023-04-06T04:44:48.094Z,88.06
2023-04-06T04:47:16.323Z,88.02
2023-04-06T04:49:44.587Z,88.11
2023-04-06T04:52:15.028Z,88.35
2023-04-06T04:54:44.420Z,89.17
2023-04-06T04:57:12.894Z,89.75
2023-04-06T04:59:42.359Z,89.85
2023-04-06T05:02:10.805Z,89.85
2023-04-06T05:04:38.807Z,89.69
2023-04-06T05:07:07.417Z,89.65
2023-04-06T05:09:35.690Z,89.21
2023-04-06T05:12:05.491Z,88.85
2023-04-06T05:14:33.758Z,88.72
2023-04-06T05:17:02.180Z,88.45
2023-04-06T05:19:30.190Z,87.24
2023-04-06T05:21:58.419Z,85.24
2023-04-06T05:24:26.855Z,83.71
2023-04-06T05:26:57.106Z,82.13
2023-04-06T05:29:26.430Z,80.73
2023-04-06T05:31:54.552Z,79.70
2023-04-06T05:34:22.971Z,78.05
2023-04-06T05:36:51.489Z,76.63
2023-04-06T05:39:22.933Z,74.98
2023-04-06T05:41:51.345Z,73.54
2023-04-06T05:44:19.473Z,71.82
2023-04-06T05:46:48.954Z,70.54
2023-04-06T05:49:17.926Z,69.67
2023-04-06T05:51:45.964Z,69.04
2023-04-06T05:54:14.149Z,67.38
2023-04-06T05:56:44.074Z,66.56
2023-04-06T05:59:12.825Z,66.84
2023-04-06T06:01:41.531Z,65.81
2023-04-06T06:04:11.459Z,64.57
2023-04-06T06:06:39.855Z,63.51
2023-04-06T06:09:08.533Z,62.68
2023-04-06T06:11:36.697Z,62.27
2023-04-06T06:14:05.021Z,62.12
2023-04-06T06:16:33.178Z,61.81
2023-04-06T06:19:01.411Z,60.59
2023-04-06T06:21:31.705Z,60.20
2023-04-06T06:23:59.781Z,59.95
2023-04-06T06:26:27.977Z,59.73
2023-04-06T06:28:56.182Z,58.69
2023-04-06T06:31:25.750Z,58.12
2023-04-06T06:33:54.913Z,57.91
2023-04-06T06:36:22.969Z,56.94
2023-04-06T06:38:52.838Z,56.69
2023-04-06T06:41:20.983Z,54.92
2023-04-06T06:43:49.041Z,55.22
2023-04-06T06:46:17.674Z,54.99
2023-04-06T06:48:45.698Z,54.47
2023-04-06T06:51:13.798Z,54.19
2023-04-06T06:53:41.848Z,52.67
2023-04-06T06:56:11.539Z,52.27
2023-04-06T06:58:39.711Z,51.39
2023-04-06T07:01:10.801Z,51.44
2023-04-06T07:03:40.862Z,50.75
2023-04-06T07:06:09.005Z,50.08
2023-04-06T07:08:37.055Z,48.94
2023-04-06T07:11:06.504Z,48.67
2023-04-06T07:13:37.472Z,47.93
2023-04-06T07:16:06.398Z,48.26
2023-04-06T07:18:37.171Z,47.74
2023-04-06T07:21:06.294Z,47.83
2023-04-06T07:23:35.648Z,46.91
2023-04-06T07:26:03.640Z,47.36
2023-04-06T07:28:31.899Z,45.84
2023-04-06T07:31:02.409Z,45.89
2023-04-06T07:33:30.982Z,45.16
2023-04-06T07:35:59.880Z,46.09
2023-04-06T07:38:31.335Z,45.36
2023-04-06T07:40:59.632Z,46.03
2023-04-06T07:43:27.997Z,46.11
2023-04-06T07:45:56.825Z,46.68
2023-04-06T07:48:26.295Z,46.53
2023-04-06T07:50:54.359Z,45.69
2023-04-06T07:53:22.393Z,45.90
2023-04-06T07:55:50.949Z,45.05
2023-04-06T07:58:22.691Z,44.32
2023-04-06T08:00:51.976Z,43.53
2023-04-06T08:03:25.723Z,42.79
2023-04-06T08:05:57.298Z,42.56
2023-04-06T08:08:25.417Z,41.54
2023-04-06T08:10:53.648Z,41.52
2023-04-06T08:13:22.083Z,41.14
2023-04-06T08:15:50.144Z,41.82
2023-04-06T08:18:18.416Z,41.85
2023-04-06T08:20:46.947Z,41.94
2023-04-06T08:23:19.010Z,40.26
2023-04-06T08:25:47.566Z,39.72
2023-04-06T08:28:15.612Z,41.75
2023-04-06T08:30:44.152Z,40.01
2023-04-06T08:33:13.177Z,38.82
2023-04-06T08:35:41.397Z,40.27
2023-04-06T08:38:09.653Z,38.94
2023-04-06T08:40:40.089Z,39.10
2023-04-06T08:43:10.939Z,39.08
2023-04-06T08:45:40.375Z,38.60
2023-04-06T08:48:09.739Z,38.61
2023-04-06T08:50:38.236Z,38.14
2023-04-06T08:53:09.368Z,39.29
2023-04-06T08:55:39.891Z,38.39
2023-04-06T08:58:09.429Z,38.21
2023-04-06T09:00:39.743Z,39.81
2023-04-06T09:03:08.429Z,38.56
2023-04-06T09:05:38.386Z,37.96
2023-04-06T09:08:06.454Z,37.88
2023-04-06T09:10:35.698Z,37.91
2023-04-06T09:13:08.773Z,38.67
2023-04-06T09:15:37.508Z,37.88
2023-04-06T09:18:05.696Z,38.24
2023-04-06T09:20:34.647Z,37.35
2023-04-06T09:23:02.748Z,37.32
2023-04-06T09:25:32.325Z,36.50
2023-04-06T09:28:01.434Z,35.92
2023-04-06T09:30:31.442Z,36.32
2023-04-06T09:33:00.403Z,34.57
2023-04-06T09:35:31.177Z,36.32
2023-04-06T09:37:59.533Z,35.97
2023-04-06T09:40:28.301Z,35.83
2023-04-06T09:42:58.739Z,35.72
2023-04-06T09:45:27.911Z,34.00
2023-04-06T09:47:57.848Z,34.81
2023-04-06T09:50:26.962Z,33.90
2023-04-06T09:52:56.543Z,35.63
2023-04-06T09:55:28.227Z,35.03
2023-04-06T09:58:00.541Z,35.47
2023-04-06T10:00:28.685Z,36.52
2023-04-06T10:03:01.811Z,37.84
2023-04-06T10:05:34.558Z,37.23
2023-04-06T10:08:06.809Z,36.63
2023-04-06T10:10:35.141Z,34.95
2023-04-06T10:13:04.303Z,36.24
2023-04-06T10:15:32.881Z,35.95
2023-04-06T10:18:03.144Z,35.02
2023-04-06T10:20:33.863Z,35.35
2023-04-06T10:23:17.166Z,35.06
2023-04-06T10:25:54.386Z,36.34
2023-04-06T10:28:23.002Z,36.81
2023-04-06T10:30:52.703Z,37.42
2023-04-06T10:33:22.359Z,37.20
2023-04-06T10:35:50.930Z,36.99
2023-04-06T10:38:23.309Z,36.83
2023-04-06T10:40:51.760Z,36.84
2023-04-06T10:43:21.886Z,37.03
2023-04-06T10:45:57.958Z,36.43
2023-04-06T10:48:38.432Z,36.00
2023-04-06T10:51:10.354Z,35.48
2023-04-06T10:53:38.338Z,35.42
2023-04-06T10:56:12.481Z,35.32
2023-04-06T10:58:48.535Z,35.99
2023-04-06T11:01:17.960Z,36.08
2023-04-06T11:03:48.022Z,36.47
2023-04-06T11:06:22.779Z,36.38
2023-04-06T11:08:51.354Z,36.05
2023-04-06T11:11:22.709Z,35.55
2023-04-06T11:13:54.142Z,35.89
2023-04-06T11:16:23.404Z,37.69
2023-04-06T11:18:57.572Z,38.04
2023-04-06T11:21:36.903Z,37.81
2023-04-06T11:24:09.505Z,37.53
2023-04-06T11:26:42.220Z,37.79
2023-04-06T11:29:11.657Z,36.84
2023-04-06T11:31:45.120Z,37.21
2023-04-06T11:34:16.287Z,36.68
2023-04-06T11:36:45.776Z,36.72
2023-04-06T11:39:15.879Z,38.00
2023-04-06T11:41:44.759Z,35.96
2023-04-06T11:44:13.058Z,35.12
2023-04-06T11:46:41.245Z,35.59
2023-04-06T11:49:09.326Z,35.85
2023-04-06T11:51:39.309Z,36.15
2023-04-06T11:54:07.634Z,34.83
2023-04-06T11:56:35.978Z,35.51
2023-04-06T11:59:04.213Z,35.58
2023-04-06T12:01:36.995Z,35.88
2023-04-06T12:04:07.645Z,35.74
2023-04-06T12:06:37.056Z,35.62
2023-04-06T12:09:06.546Z,36.48
2023-04-06T12:11:35.187Z,36.54
2023-04-06T12:14:05.789Z,36.08
2023-04-06T12:16:34.281Z,35.02
2023-04-06T12:19:03.243Z,34.91
2023-04-06T12:21:32.593Z,34.80
2023-04-06T12:24:02.154Z,35.56
2023-04-06T12:26:32.093Z,35.09
2023-04-06T12:29:06.695Z,36.40
2023-04-06T12:31:39.811Z,35.81
2023-04-06T12:34:08.817Z,36.77
2023-04-06T12:36:39.214Z,36.86
2023-04-06T12:39:07.590Z,36.75
2023-04-06T12:41:37.400Z,37.26
2023-04-06T12:44:05.553Z,37.42
2023-04-06T12:46:33.873Z,37.53
2023-04-06T12:49:02.076Z,38.06
2023-04-06T12:51:30.766Z,38.35
2023-04-06T12:53:58.926Z,38.65
2023-04-06T12:56:27.998Z,38.54
2023-04-06T12:58:57.784Z,37.85
2023-04-06T13:01:27.171Z,37.55
2023-04-06T13:03:56.006Z,38.49
2023-04-06T13:06:24.193Z,38.26
2023-04-06T13:08:52.254Z,38.40
2023-04-06T13:11:21.944Z,38.00
2023-04-06T13:13:50.088Z,38.44
2023-04-06T13:16:19.916Z,38.77
2023-04-06T13:18:48.351Z,38.22
2023-04-06T13:21:17.856Z,38.91
2023-04-06T13:23:46.129Z,39.55
2023-04-06T13:26:18.864Z,39.24
2023-04-06T13:28:47.064Z,40.57
2023-04-06T13:31:15.608Z,39.10
2023-04-06T13:33:45.021Z,39.78
2023-04-06T13:36:20.365Z,39.28
2023-04-06T13:38:48.677Z,39.68
2023-04-06T13:41:22.149Z,39.10
2023-04-06T13:43:50.785Z,39.37
2023-04-06T13:46:19.404Z,38.71
2023-04-06T13:48:49.097Z,38.24
2023-04-06T13:51:18.242Z,38.90
2023-04-06T13:53:47.092Z,39.33
2023-04-06T13:56:15.495Z,38.61
2023-04-06T13:58:44.108Z,38.56
2023-04-06T14:01:12.649Z,39.44
2023-04-06T14:03:43.190Z,39.09
2023-04-06T14:08:45.113Z,38.44
2023-04-06T14:11:13.882Z,39.11
2023-04-06T14:13:43.147Z,39.02
2023-04-06T14:16:12.033Z,38.75
2023-04-06T14:18:43.870Z,38.41
2023-04-06T14:21:13.317Z,39.98
2023-04-06T14:23:41.650Z,38.73
2023-04-06T14:26:10.317Z,38.86
2023-04-06T14:28:39.345Z,38.97
2023-04-06T14:31:13.045Z,38.95
2023-04-06T14:33:41.785Z,38.63
2023-04-06T14:36:10.898Z,39.13
2023-04-06T14:38:41.521Z,38.85
2023-04-06T14:41:11.742Z,39.84
2023-04-06T14:43:39.812Z,40.16
2023-04-06T14:46:09.837Z,39.84
2023-04-06T14:48:41.626Z,39.21
2023-04-06T14:51:09.697Z,39.67
2023-04-06T14:53:40.844Z,39.53
2023-04-06T14:56:10.136Z,39.83
2023-04-06T14:58:38.259Z,39.49
2023-04-06T15:01:07.607Z,39.89
2023-04-06T15:03:36.325Z,39.52
2023-04-06T15:06:04.696Z,39.78
2023-04-06T15:08:33.462Z,39.76
2023-04-06T15:11:02.847Z,39.23
2023-04-06T15:13:30.983Z,39.79
2023-04-06T15:16:01.623Z,39.77
2023-04-06T15:18:30.397Z,39.91
2023-04-06T15:20:58.811Z,40.04
2023-04-06T15:23:30.498Z,39.27
2023-04-06T15:25:59.157Z,39.56
2023-04-06T15:28:29.502Z,38.95
2023-04-06T15:30:58.915Z,39.07
2023-04-06T15:33:27.747Z,39.78
2023-04-06T15:35:56.166Z,39.47
2023-04-06T15:38:24.310Z,39.43
2023-04-06T15:40:52.921Z,39.22
2023-04-06T15:43:21.574Z,39.84
2023-04-06T15:45:51.419Z,39.79
2023-04-06T15:48:19.910Z,39.89
2023-04-06T15:50:47.901Z,39.69
2023-04-06T15:53:16.218Z,39.84
2023-04-06T15:55:44.600Z,39.61
2023-04-06T15:58:13.114Z,39.21
2023-04-06T16:00:41.544Z,39.56
2023-04-06T16:03:11.138Z,40.58
2023-04-06T16:05:48.482Z,40.86
2023-04-06T16:08:22.197Z,40.42
2023-04-06T16:10:52.545Z,40.34
2023-04-06T16:13:21.804Z,41.14
2023-04-06T16:15:51.096Z,41.52
2023-04-06T16:18:21.217Z,40.77
2023-04-06T16:20:49.476Z,40.79
2023-04-06T16:23:17.531Z,40.93
2023-04-06T16:25:45.834Z,41.10
2023-04-06T16:28:13.930Z,41.10
2023-04-06T16:30:44.712Z,41.03
2023-04-06T16:33:16.980Z,40.87
2023-04-06T16:35:47.238Z,41.48
2023-04-06T16:38:16.720Z,41.46
2023-04-06T16:40:47.663Z,41.52
2023-04-06T16:43:16.515Z,41.84
2023-04-06T16:45:52.430Z,41.73
2023-04-06T16:48:20.686Z,41.75
2023-04-06T16:50:50.101Z,41.74
2023-04-06T16:53:18.381Z,41.85
2023-04-06T16:55:46.316Z,42.16
2023-04-06T16:58:14.794Z,42.44
2023-04-06T17:00:43.387Z,42.80
2023-04-06T17:03:11.743Z,42.70
2023-04-06T17:05:40.286Z,42.48
2023-04-06T17:08:11.371Z,42.59
2023-04-06T17:10:41.797Z,42.50
2023-04-06T17:13:14.952Z,42.31
2023-04-06T17:15:44.300Z,42.34
2023-04-06T17:18:12.616Z,42.82
2023-04-06T17:20:41.289Z,42.58
2023-04-06T17:23:11.225Z,42.58
2023-04-06T17:25:39.647Z,43.67
2023-04-06T17:28:08.049Z,43.45
2023-04-06T17:30:36.317Z,43.30
2023-04-06T17:33:04.853Z,43.76
2023-04-06T17:35:33.034Z,43.86
2023-04-06T17:38:02.568Z,43.92
2023-04-06T17:40:33.641Z,44.56
2023-04-06T17:43:01.728Z,44.40
2023-04-06T17:45:29.715Z,44.89
2023-04-06T17:47:57.862Z,44.91
2023-04-06T17:50:26.201Z,45.07
2023-04-06T17:52:54.415Z,45.23
2023-04-06T17:55:23.801Z,45.10
2023-04-06T17:57:55.910Z,45.26
2023-04-06T18:00:25.726Z,45.91
2023-04-06T18:02:54.337Z,45.69
2023-04-06T18:05:23.294Z,45.96
2023-04-06T18:07:52.764Z,46.31
2023-04-06T18:10:21.525Z,46.36
2023-04-06T18:12:49.985Z,46.82
2023-04-06T18:15:19.848Z,47.23
2023-04-06T18:17:48.221Z,47.34
2023-04-06T18:20:17.640Z,47.77
2023-04-06T18:22:45.716Z,47.92
2023-04-06T18:25:13.666Z,48.10
2023-04-06T18:27:42.008Z,48.59
2023-04-06T18:30:13.111Z,48.71
2023-04-06T18:32:42.632Z,48.78
2023-04-06T18:35:11.638Z,48.87
2023-04-06T18:37:39.770Z,49.15
2023-04-06T18:40:08.862Z,49.46
2023-04-06T18:42:38.113Z,49.80
2023-04-06T18:45:07.256Z,50.14
2023-04-06T18:47:35.754Z,50.41
2023-04-06T18:50:06.287Z,50.87
2023-04-06T18:52:34.340Z,51.19
2023-04-06T18:55:02.585Z,51.19
2023-04-06T18:57:30.921Z,50.92
2023-04-06T19:00:00.061Z,51.06
2023-04-06T19:02:28.549Z,51.05
2023-04-06T19:04:57.503Z,51.25
2023-04-06T19:07:27.248Z,51.31
2023-04-06T19:09:55.436Z,51.54
2023-04-06T19:12:23.411Z,51.77
2023-04-06T19:14:52.109Z,51.85
2023-04-06T19:17:21.274Z,52.10
2023-04-06T19:19:49.381Z,52.05
2023-04-06T19:22:18.010Z,52.25
2023-04-06T19:24:49.808Z,52.54
2023-04-06T19:27:18.097Z,52.46
2023-04-06T19:29:46.308Z,52.47
2023-04-06T19:32:14.604Z,52.63
2023-04-06T19:34:42.723Z,52.90
2023-04-06T19:37:10.867Z,52.76
2023-04-06T19:39:40.189Z,53.04
2023-04-06T19:42:09.575Z,52.91
2023-04-06T19:44:37.551Z,53.20
2023-04-06T19:47:05.970Z,53.05
2023-04-06T19:49:34.578Z,53.10
2023-04-06T19:52:03.770Z,53.30
2023-04-06T19:54:31.857Z,53.22
2023-04-06T19:56:59.986Z,53.24
2023-04-06T19:59:30.001Z,53.38
2023-04-06T20:01:58.187Z,53.53
2023-04-06T20:04:26.832Z,53.76
2023-04-06T20:06:55.136Z,53.84
2023-04-06T20:09:27.160Z,54.13
2023-04-06T20:11:55.973Z,54.33
2023-04-06T20:14:24.475Z,54.85
2023-04-06T20:16:54.270Z,55.19
2023-04-06T20:19:22.499Z,55.43
2023-04-06T20:21:50.841Z,55.66
2023-04-06T20:24:20.126Z,55.97
2023-04-06T20:26:49.145Z,56.44
2023-04-06T20:29:20.154Z,56.77
2023-04-06T20:31:48.533Z,56.91
2023-04-06T20:34:18.058Z,57.06
2023-04-06T20:36:46.373Z,57.05
2023-04-06T20:39:14.690Z,57.28
2023-04-06T20:41:43.612Z,57.49
2023-04-06T20:44:11.597Z,57.53
2023-04-06T20:46:39.868Z,57.68
2023-04-06T20:49:08.183Z,57.79
2023-04-06T20:51:37.862Z,58.22
2023-04-06T20:54:07.391Z,58.17
2023-04-06T20:56:35.800Z,58.25
2023-04-06T20:59:05.204Z,58.22
2023-04-06T21:01:34.841Z,58.50
2023-04-06T21:04:04.319Z,58.43
2023-04-06T21:06:33.120Z,58.59
2023-04-06T21:09:02.821Z,58.83
2023-04-06T21:11:31.188Z,59.02
2023-04-06T21:13:59.218Z,59.03
2023-04-06T21:16:27.994Z,58.93
2023-04-06T21:18:56.143Z,59.31
2023-04-06T21:21:24.124Z,59.48
2023-04-06T21:23:53.172Z,59.62
2023-04-06T21:26:24.054Z,59.52
2023-04-06T21:28:52.508Z,59.77
2023-04-06T21:31:21.688Z,59.74
2023-04-06T21:33:50.896Z,59.93
2023-04-06T21:36:19.030Z,60.16
2023-04-06T21:38:47.337Z,60.37
2023-04-06T21:41:15.607Z,60.85
2023-04-06T21:43:48.823Z,61.07
2023-04-06T21:46:16.877Z,61.78
2023-04-06T21:48:45.808Z,62.15
2023-04-06T21:51:17.853Z,62.23
2023-04-06T21:53:45.868Z,62.17
2023-04-06T21:56:14.585Z,62.41
2023-04-06T21:58:42.774Z,62.66
2023-04-06T22:01:12.941Z,62.78
2023-04-06T22:03:41.469Z,62.96
2023-04-06T22:06:09.895Z,63.21
2023-04-06T22:08:38.132Z,63.20
2023-04-06T22:11:19.259Z,63.34
2023-04-06T22:13:47.814Z,63.52
2023-04-06T22:16:18.615Z,63.84
2023-04-06T22:18:47.175Z,63.80
2023-04-06T22:21:15.536Z,64.03
2023-04-06T22:23:44.929Z,64.13
2023-04-06T22:26:13.009Z,64.32
2023-04-06T22:28:42.218Z,64.40
2023-04-06T22:31:10.361Z,64.61
2023-04-06T22:33:39.975Z,64.83
2023-04-06T22:36:08.626Z,65.17
2023-04-06T22:38:36.985Z,65.37
2023-04-06T22:41:07.208Z,65.47
2023-04-06T22:43:36.922Z,65.68
2023-04-06T22:46:05.504Z,66.23
2023-04-06T22:48:33.501Z,66.45
2023-04-06T22:51:03.019Z,66.91
2023-04-06T22:53:31.012Z,67.27
2023-04-06T22:55:59.045Z,67.33
2023-04-06T22:58:27.599Z,67.37
2023-04-06T23:00:56.216Z,67.58
2023-04-06T23:03:24.723Z,67.80
2023-04-06T23:05:52.844Z,68.17
2023-04-06T23:08:22.488Z,67.93
2023-04-06T23:10:51.417Z,67.24
2023-04-06T23:13:20.002Z,66.98
2023-04-06T23:15:48.415Z,66.73
2023-04-06T23:18:16.460Z,66.58
2023-04-06T23:20:44.600Z,66.44
2023-04-06T23:23:13.804Z,66.40
2023-04-06T23:25:43.503Z,66.50
2023-04-06T23:28:11.485Z,66.40
2023-04-06T23:30:41.738Z,66.14
2023-04-06T23:33:09.949Z,65.86
2023-04-06T23:35:38.303Z,65.67
2023-04-06T23:38:06.627Z,65.37
2023-04-06T23:40:34.672Z,65.13
2023-04-06T23:43:04.260Z,65.14
2023-04-06T23:45:33.235Z,65.03
2023-04-06T23:48:03.755Z,64.76
2023-04-06T23:50:32.880Z,64.65
2023-04-06T23:53:01.289Z,64.52
2023-04-06T23:55:29.436Z,64.16
2023-04-06T23:57:58.429Z,63.91
